sensor_id;sensor_type;location;lat;lon;timestamp;pressure;altitude;pressure_sealevel;temperature;humidity
46347;BME280;32057;47.830;19.046;2023-02-11T00:01:28;102268.72;;;-5.55;100.00
46347;BME280;32057;47.830;19.046;2023-02-11T00:03:55;102268.88;;;-5.53;100.00
46347;BME280;32057;47.830;19.046;2023-02-11T00:06:21;102279.63;;;-5.70;100.00
46347;BME280;32057;47.830;19.046;2023-02-11T00:08:47;102280.34;;;-5.71;100.00
46347;BME280;32057;47.830;19.046;2023-02-11T00:11:14;102286.16;;;-5.72;100.00
46347;BME280;32057;47.830;19.046;2023-02-11T00:13:41;102280.34;;;-5.71;100.00
46347;BME280;32057;47.830;19.046;2023-02-11T00:16:09;102277.41;;;-5.67;100.00
46347;BME280;32057;47.830;19.046;2023-02-11T00:18:35;102273.63;;;-5.64;100.00
46347;BME280;32057;47.830;19.046;2023-02-11T00:21:06;102281.25;;;-5.71;100.00
46347;BME280;32057;47.830;19.046;2023-02-11T00:23:31;102289.75;;;-5.70;100.00
46347;BME280;32057;47.830;19.046;2023-02-11T00:25:57;102290.47;;;-5.71;100.00
46347;BME280;32057;47.830;19.046;2023-02-11T00:28:22;102279.78;;;-5.62;100.00
46347;BME280;32057;47.830;19.046;2023-02-11T00:30:54;102285.59;;;-5.63;100.00
46347;BME280;32057;47.830;19.046;2023-02-11T00:33:19;102278.13;;;-5.54;100.00
46347;BME280;32057;47.830;19.046;2023-02-11T00:35:45;102278.88;;;-5.62;100.00
46347;BME280;32057;47.830;19.046;2023-02-11T00:38:10;102269.09;;;-5.66;100.00
46347;BME280;32057;47.830;19.046;2023-02-11T00:40:36;102257.13;;;-5.67;100.00
46347;BME280;32057;47.830;19.046;2023-02-11T00:43:01;102257.50;;;-5.64;100.00
46347;BME280;32057;47.830;19.046;2023-02-11T00:45:26;102265.84;;;-5.80;100.00
46347;BME280;32057;47.830;19.046;2023-02-11T00:47:52;102262.63;;;-5.78;100.00
46347;BME280;32057;47.830;19.046;2023-02-11T00:50:18;102262.44;;;-5.80;100.00
46347;BME280;32057;47.830;19.046;2023-02-11T00:52:43;102256.09;;;-5.76;100.00
46347;BME280;32057;47.830;19.046;2023-02-11T00:55:09;102255.91;;;-5.85;100.00
46347;BME280;32057;47.830;19.046;2023-02-11T00:57:34;102258.28;;;-5.87;100.00
46347;BME280;32057;47.830;19.046;2023-02-11T01:00:00;102251.56;;;-5.79;100.00
46347;BME280;32057;47.830;19.046;2023-02-11T01:02:25;102248.84;;;-5.81;100.00
46347;BME280;32057;47.830;19.046;2023-02-11T01:04:51;102256.84;;;-5.85;100.00
46347;BME280;32057;47.830;19.046;2023-02-11T01:07:16;102251.25;;;-5.96;100.00
46347;BME280;32057;47.830;19.046;2023-02-11T01:09:41;102243.84;;;-5.95;100.00
46347;BME280;32057;47.830;19.046;2023-02-11T01:12:07;102245.31;;;-5.97;100.00
46347;BME280;32057;47.830;19.046;2023-02-11T01:14:32;102248.16;;;-6.01;100.00
46347;BME280;32057;47.830;19.046;2023-02-11T01:16:58;102238.41;;;-5.98;100.00
46347;BME280;32057;47.830;19.046;2023-02-11T01:19:23;102241.31;;;-6.02;100.00
46347;BME280;32057;47.830;19.046;2023-02-11T01:21:48;102236.25;;;-6.02;100.00
46347;BME280;32057;47.830;19.046;2023-02-11T01:24:14;102233.88;;;-6.08;100.00
46347;BME280;32057;47.830;19.046;2023-02-11T01:26:39;102237.31;;;-6.07;100.00
46347;BME280;32057;47.830;19.046;2023-02-11T01:29:04;102238.06;;;-6.08;100.00
46347;BME280;32057;47.830;19.046;2023-02-11T01:31:30;102235.72;;;-6.14;100.00
46347;BME280;32057;47.830;19.046;2023-02-11T01:33:56;102233.91;;;-6.22;100.00
46347;BME280;32057;47.830;19.046;2023-02-11T01:36:21;102224.69;;;-6.14;100.00
46347;BME280;32057;47.830;19.046;2023-02-11T01:38:47;102229.38;;;-6.10;100.00
46347;BME280;32057;47.830;19.046;2023-02-11T01:41:14;102217.63;;;-6.17;100.00
46347;BME280;32057;47.830;19.046;2023-02-11T01:43:43;102225.03;;;-6.26;100.00
46347;BME280;32057;47.830;19.046;2023-02-11T01:49:17;102225.94;;;-6.11;100.00
46347;BME280;32057;47.830;19.046;2023-02-11T01:54:15;102223.78;;;-6.22;100.00
46347;BME280;32057;47.830;19.046;2023-02-11T01:57:01;102226.31;;;-6.36;100.00
46347;BME280;32057;47.830;19.046;2023-02-11T02:05:46;102216.34;;;-6.28;100.00
46347;BME280;32057;47.830;19.046;2023-02-11T02:08:23;102217.06;;;-6.22;100.00
46347;BME280;32057;47.830;19.046;2023-02-11T02:10:54;102218.16;;;-6.34;100.00
46347;BME280;32057;47.830;19.046;2023-02-11T02:13:24;102220.69;;;-6.34;100.00
46347;BME280;32057;47.830;19.046;2023-02-11T02:15:52;102217.09;;;-6.50;100.00
46347;BME280;32057;47.830;19.046;2023-02-11T02:33:23;102215.97;;;-6.74;100.00
46347;BME280;32057;47.830;19.046;2023-02-11T02:38:57;102216.31;;;-6.85;100.00
46347;BME280;32057;47.830;19.046;2023-02-11T02:41:31;102215.97;;;-6.74;100.00
46347;BME280;32057;47.830;19.046;2023-02-11T02:43:58;102214.53;;;-6.72;100.00
46347;BME280;32057;47.830;19.046;2023-02-11T02:46:27;102212.00;;;-6.72;100.00
46347;BME280;32057;47.830;19.046;2023-02-11T02:48:54;102214.19;;;-6.75;100.00
46347;BME280;32057;47.830;19.046;2023-02-11T02:57:07;102194.28;;;-6.86;100.00
46347;BME280;32057;47.830;19.046;2023-02-11T03:02:19;102194.28;;;-6.72;100.00
46347;BME280;32057;47.830;19.046;2023-02-11T03:08:11;102188.50;;;-6.78;100.00
46347;BME280;32057;47.830;19.046;2023-02-11T03:10:42;102187.03;;;-6.83;100.00
46347;BME280;32057;47.830;19.046;2023-02-11T03:13:09;102183.25;;;-6.87;100.00
46347;BME280;32057;47.830;19.046;2023-02-11T03:15:43;102173.28;;;-6.85;100.00
46347;BME280;32057;47.830;19.046;2023-02-11T03:18:08;102173.47;;;-6.84;100.00
46347;BME280;32057;47.830;19.046;2023-02-11T03:20:36;102174.72;;;-6.87;100.00
46347;BME280;32057;47.830;19.046;2023-02-11T03:25:37;102165.34;;;-6.88;100.00
46347;BME280;32057;47.830;19.046;2023-02-11T03:28:16;102162.44;;;-6.91;100.00
46347;BME280;32057;47.830;19.046;2023-02-11T03:33:38;102153.59;;;-6.81;100.00
46347;BME280;32057;47.830;19.046;2023-02-11T03:36:10;102147.81;;;-6.87;100.00
46347;BME280;32057;47.830;19.046;2023-02-11T03:38:46;102146.53;;;-6.90;100.00
46347;BME280;32057;47.830;19.046;2023-02-11T03:41:14;102139.31;;;-6.94;100.00
46347;BME280;32057;47.830;19.046;2023-02-11T03:43:46;102134.41;;;-7.00;100.00
46347;BME280;32057;47.830;19.046;2023-02-11T03:46:15;102130.81;;;-7.02;100.00
46347;BME280;32057;47.830;19.046;2023-02-11T03:48:54;102136.41;;;-7.05;100.00
46347;BME280;32057;47.830;19.046;2023-02-11T03:51:21;102134.41;;;-7.07;100.00
46347;BME280;32057;47.830;19.046;2023-02-11T03:53:49;102132.41;;;-7.10;100.00
46347;BME280;32057;47.830;19.046;2023-02-11T03:56:19;102133.47;;;-7.15;100.00
46347;BME280;32057;47.830;19.046;2023-02-11T03:58:47;102124.28;;;-7.07;100.00
46347;BME280;32057;47.830;19.046;2023-02-11T04:01:12;102118.69;;;-7.05;100.00
46347;BME280;32057;47.830;19.046;2023-02-11T04:03:38;102124.47;;;-7.06;100.00
46347;BME280;32057;47.830;19.046;2023-02-11T04:06:04;102115.44;;;-7.11;100.00
46347;BME280;32057;47.830;19.046;2023-02-11T04:08:29;102120.50;;;-7.11;100.00
46347;BME280;32057;47.830;19.046;2023-02-11T04:10:56;102122.50;;;-7.08;100.00
46347;BME280;32057;47.830;19.046;2023-02-11T04:13:21;102121.56;;;-7.02;100.00
46347;BME280;32057;47.830;19.046;2023-02-11T04:15:47;102116.16;;;-7.05;100.00
46347;BME280;32057;47.830;19.046;2023-02-11T04:18:12;102116.16;;;-7.05;100.00
46347;BME280;32057;47.830;19.046;2023-02-11T04:20:38;102111.13;;;-7.05;100.00
46347;BME280;32057;47.830;19.046;2023-02-11T04:23:03;102106.78;;;-6.98;100.00
46347;BME280;32057;47.830;19.046;2023-02-11T04:25:29;102107.13;;;-6.95;100.00
46347;BME280;32057;47.830;19.046;2023-02-11T04:27:54;102108.00;;;-6.95;100.00
46347;BME280;32057;47.830;19.046;2023-02-11T04:30:20;102115.06;;;-6.99;100.00
46347;BME280;32057;47.830;19.046;2023-02-11T04:32:45;102108.38;;;-6.99;100.00
46347;BME280;32057;47.830;19.046;2023-02-11T04:35:11;102110.38;;;-7.11;100.00
46347;BME280;32057;47.830;19.046;2023-02-11T04:37:36;102101.69;;;-7.20;100.00
46347;BME280;32057;47.830;19.046;2023-02-11T04:40:02;102100.19;;;-7.39;100.00
46347;BME280;32057;47.830;19.046;2023-02-11T04:42:28;102097.88;;;-7.38;100.00
46347;BME280;32057;47.830;19.046;2023-02-11T04:44:53;102099.31;;;-7.33;100.00
46347;BME280;32057;47.830;19.046;2023-02-11T04:47:19;102107.97;;;-7.38;100.00
46347;BME280;32057;47.830;19.046;2023-02-11T04:49:44;102101.28;;;-7.37;100.00
46347;BME280;32057;47.830;19.046;2023-02-11T04:52:09;102102.75;;;-7.32;100.00
46347;BME280;32057;47.830;19.046;2023-02-11T04:54:35;102099.53;;;-7.24;100.00
46347;BME280;32057;47.830;19.046;2023-02-11T04:57:01;102097.72;;;-7.18;100.00
46347;BME280;32057;47.830;19.046;2023-02-11T04:59:27;102091.75;;;-7.18;100.00
46347;BME280;32057;47.830;19.046;2023-02-11T05:01:52;102097.34;;;-7.28;100.00
46347;BME280;32057;47.830;19.046;2023-02-11T05:04:18;102102.59;;;-7.27;100.00
46347;BME280;32057;47.830;19.046;2023-02-11T05:06:43;102101.84;;;-7.33;100.00
46347;BME280;32057;47.830;19.046;2023-02-11T05:09:12;102108.91;;;-7.23;100.00
46347;BME280;32057;47.830;19.046;2023-02-11T05:11:38;102100.59;;;-7.22;100.00
46347;BME280;32057;47.830;19.046;2023-02-11T05:14:05;102104.03;;;-7.29;100.00
46347;BME280;32057;47.830;19.046;2023-02-11T05:16:30;102101.28;;;-7.45;100.00
46347;BME280;32057;47.830;19.046;2023-02-11T05:18:56;102094.06;;;-7.49;100.00
46347;BME280;32057;47.830;19.046;2023-02-11T05:21:22;102092.56;;;-7.61;100.00
46347;BME280;32057;47.830;19.046;2023-02-11T05:23:48;102094.75;;;-7.57;100.00
46347;BME280;32057;47.830;19.046;2023-02-11T05:26:13;102088.94;;;-7.70;100.00
46347;BME280;32057;47.830;19.046;2023-02-11T05:28:41;102089.69;;;-7.57;100.00
46347;BME280;32057;47.830;19.046;2023-02-11T05:31:07;102088.94;;;-7.63;100.00
46347;BME280;32057;47.830;19.046;2023-02-11T05:33:33;102092.94;;;-7.58;100.00
46347;BME280;32057;47.830;19.046;2023-02-11T05:36:04;102095.13;;;-7.54;100.00
46347;BME280;32057;47.830;19.046;2023-02-11T05:38:30;102102.91;;;-7.52;100.00
46347;BME280;32057;47.830;19.046;2023-02-11T05:40:56;102103.78;;;-7.52;100.00
46347;BME280;32057;47.830;19.046;2023-02-11T05:43:21;102104.19;;;-7.49;100.00
46347;BME280;32057;47.830;19.046;2023-02-11T05:45:47;102103.66;;;-7.32;100.00
46347;BME280;32057;47.830;19.046;2023-02-11T05:48:12;102100.22;;;-7.25;100.00
46347;BME280;32057;47.830;19.046;2023-02-11T05:50:38;102102.06;;;-7.24;100.00
46347;BME280;32057;47.830;19.046;2023-02-11T05:53:04;102109.44;;;-7.26;100.00
46347;BME280;32057;47.830;19.046;2023-02-11T05:55:30;102092.25;;;-7.35;100.00
46347;BME280;32057;47.830;19.046;2023-02-11T05:57:55;102085.94;;;-7.39;100.00
46347;BME280;32057;47.830;19.046;2023-02-11T06:00:21;102080.72;;;-7.41;100.00
46347;BME280;32057;47.830;19.046;2023-02-11T06:02:47;102073.84;;;-7.49;100.00
46347;BME280;32057;47.830;19.046;2023-02-11T06:05:12;102069.88;;;-7.47;100.00
46347;BME280;32057;47.830;19.046;2023-02-11T06:07:38;102060.06;;;-7.51;100.00
46347;BME280;32057;47.830;19.046;2023-02-11T06:10:03;102061.53;;;-7.53;100.00
46347;BME280;32057;47.830;19.046;2023-02-11T06:12:29;102071.47;;;-7.47;100.00
46347;BME280;32057;47.830;19.046;2023-02-11T06:14:54;102073.47;;;-7.37;100.00
46347;BME280;32057;47.830;19.046;2023-02-11T06:17:20;102072.25;;;-7.27;100.00
46347;BME280;32057;47.830;19.046;2023-02-11T06:19:45;102067.38;;;-7.18;100.00
46347;BME280;32057;47.830;19.046;2023-02-11T06:22:11;102061.59;;;-7.10;100.00
46347;BME280;32057;47.830;19.046;2023-02-11T06:24:36;102065.56;;;-7.05;100.00
46347;BME280;32057;47.830;19.046;2023-02-11T06:27:05;102061.22;;;-6.98;100.00
46347;BME280;32057;47.830;19.046;2023-02-11T06:29:30;102063.75;;;-6.98;100.00
46347;BME280;32057;47.830;19.046;2023-02-11T06:31:55;102067.72;;;-6.86;100.00
46347;BME280;32057;47.830;19.046;2023-02-11T06:34:21;102063.19;;;-6.74;100.00
46347;BME280;32057;47.830;19.046;2023-02-11T06:36:46;102067.53;;;-6.66;100.00
46347;BME280;32057;47.830;19.046;2023-02-11T06:39:12;102058.28;;;-6.58;100.00
46347;BME280;32057;47.830;19.046;2023-02-11T06:41:38;102056.81;;;-6.49;100.00
46347;BME280;32057;47.830;19.046;2023-02-11T06:44:04;102061.50;;;-6.38;100.00
46347;BME280;32057;47.830;19.046;2023-02-11T06:46:29;102062.91;;;-6.26;100.00
46347;BME280;32057;47.830;19.046;2023-02-11T06:48:55;102060.88;;;-6.14;100.00
46347;BME280;32057;47.830;19.046;2023-02-11T06:51:21;102059.22;;;-5.99;100.00
46347;BME280;32057;47.830;19.046;2023-02-11T06:53:46;102056.38;;;-5.86;100.00
46347;BME280;32057;47.830;19.046;2023-02-11T06:56:15;102057.44;;;-5.77;100.00
46347;BME280;32057;47.830;19.046;2023-02-11T06:58:41;102056.66;;;-5.69;100.00
46347;BME280;32057;47.830;19.046;2023-02-11T07:01:09;102053.16;;;-5.55;100.00
46347;BME280;32057;47.830;19.046;2023-02-11T07:03:37;102048.38;;;-5.45;100.00
46347;BME280;32057;47.830;19.046;2023-02-11T07:06:05;102041.94;;;-5.34;100.00
46347;BME280;32057;47.830;19.046;2023-02-11T07:08:35;102042.38;;;-5.22;100.00
46347;BME280;32057;47.830;19.046;2023-02-11T07:11:07;102041.59;;;-5.14;100.00
46347;BME280;32057;47.830;19.046;2023-02-11T07:13:33;102033.94;;;-5.07;100.00
46347;BME280;32057;47.830;19.046;2023-02-11T07:15:58;102034.03;;;-4.98;100.00
46347;BME280;32057;47.830;19.046;2023-02-11T07:18:27;102036.84;;;-4.88;100.00
46347;BME280;32057;47.830;19.046;2023-02-11T07:20:52;102034.25;;;-4.81;100.00
46347;BME280;32057;47.830;19.046;2023-02-11T07:23:18;102031.06;;;-4.71;100.00
46347;BME280;32057;47.830;19.046;2023-02-11T07:25:43;102025.50;;;-4.60;100.00
46347;BME280;32057;47.830;19.046;2023-02-11T07:28:09;102010.53;;;-4.49;100.00
46347;BME280;32057;47.830;19.046;2023-02-11T07:30:36;102011.09;;;-4.36;100.00
46347;BME280;32057;47.830;19.046;2023-02-11T07:33:02;102011.31;;;-4.26;100.00
46347;BME280;32057;47.830;19.046;2023-02-11T07:35:27;102015.75;;;-4.16;100.00
46347;BME280;32057;47.830;19.046;2023-02-11T07:37:52;102017.63;;;-4.06;100.00
46347;BME280;32057;47.830;19.046;2023-02-11T07:40:18;102016.19;;;-3.95;100.00
46347;BME280;32057;47.830;19.046;2023-02-11T07:42:46;102022.25;;;-3.86;100.00
46347;BME280;32057;47.830;19.046;2023-02-11T07:45:12;102024.13;;;-3.76;100.00
46347;BME280;32057;47.830;19.046;2023-02-11T07:47:39;102017.47;;;-3.67;100.00
46347;BME280;32057;47.830;19.046;2023-02-11T07:50:07;102019.00;;;-3.61;100.00
46347;BME280;32057;47.830;19.046;2023-02-11T07:52:32;102022.34;;;-3.53;100.00
46347;BME280;32057;47.830;19.046;2023-02-11T07:54:58;102024.03;;;-3.45;100.00
46347;BME280;32057;47.830;19.046;2023-02-11T07:57:23;102011.78;;;-3.40;100.00
46347;BME280;32057;47.830;19.046;2023-02-11T07:59:49;102003.59;;;-3.37;100.00
46347;BME280;32057;47.830;19.046;2023-02-11T08:02:14;102010.78;;;-3.33;100.00
46347;BME280;32057;47.830;19.046;2023-02-11T08:04:39;102000.91;;;-3.30;100.00
46347;BME280;32057;47.830;19.046;2023-02-11T08:07:05;102002.28;;;-3.25;100.00
46347;BME280;32057;47.830;19.046;2023-02-11T08:09:31;102004.69;;;-3.18;100.00
46347;BME280;32057;47.830;19.046;2023-02-11T08:11:56;102008.03;;;-3.10;100.00
46347;BME280;32057;47.830;19.046;2023-02-11T08:14:21;102006.25;;;-3.03;100.00
46347;BME280;32057;47.830;19.046;2023-02-11T08:16:49;102012.75;;;-2.97;100.00
46347;BME280;32057;47.830;19.046;2023-02-11T08:19:15;102020.25;;;-2.90;100.00
46347;BME280;32057;47.830;19.046;2023-02-11T08:21:41;102011.72;;;-2.82;100.00
46347;BME280;32057;47.830;19.046;2023-02-11T08:24:08;102003.97;;;-2.75;100.00
46347;BME280;32057;47.830;19.046;2023-02-11T08:26:34;102004.56;;;-2.69;100.00
46347;BME280;32057;47.830;19.046;2023-02-11T08:29:01;102017.47;;;-2.58;100.00
46347;BME280;32057;47.830;19.046;2023-02-11T08:31:31;102020.19;;;-2.48;100.00
46347;BME280;32057;47.830;19.046;2023-02-11T08:33:57;102005.97;;;-2.37;100.00
46347;BME280;32057;47.830;19.046;2023-02-11T08:36:32;102015.41;;;-2.28;100.00
46347;BME280;32057;47.830;19.046;2023-02-11T08:38:59;102001.34;;;-2.15;100.00
46347;BME280;32057;47.830;19.046;2023-02-11T08:41:27;102001.03;;;-2.01;100.00
46347;BME280;32057;47.830;19.046;2023-02-11T08:43:53;101994.88;;;-1.86;100.00
46347;BME280;32057;47.830;19.046;2023-02-11T08:46:19;101988.53;;;-1.72;100.00
46347;BME280;32057;47.830;19.046;2023-02-11T08:48:45;101979.78;;;-1.56;100.00
46347;BME280;32057;47.830;19.046;2023-02-11T08:51:37;101981.69;;;-1.36;100.00
46347;BME280;32057;47.830;19.046;2023-02-11T08:54:02;101978.31;;;-1.18;100.00
46347;BME280;32057;47.830;19.046;2023-02-11T08:56:28;101980.06;;;-1.08;100.00
46347;BME280;32057;47.830;19.046;2023-02-11T08:58:55;101970.88;;;-0.97;100.00
46347;BME280;32057;47.830;19.046;2023-02-11T09:01:25;101970.06;;;-0.88;99.38
46347;BME280;32057;47.830;19.046;2023-02-11T09:03:52;101968.19;;;-0.80;97.87
46347;BME280;32057;47.830;19.046;2023-02-11T09:06:19;101967.25;;;-0.72;100.00
46347;BME280;32057;47.830;19.046;2023-02-11T09:08:46;101964.50;;;-0.65;98.33
46347;BME280;32057;47.830;19.046;2023-02-11T09:11:14;101967.41;;;-0.51;98.96
46347;BME280;32057;47.830;19.046;2023-02-11T09:13:41;101962.19;;;-0.34;98.12
46347;BME280;32057;47.830;19.046;2023-02-11T09:16:07;101965.34;;;-0.17;96.47
46347;BME280;32057;47.830;19.046;2023-02-11T09:18:32;101967.75;;;0.00;91.79
46347;BME280;32057;47.830;19.046;2023-02-11T09:21:07;101983.41;;;0.13;91.04
46347;BME280;32057;47.830;19.046;2023-02-11T09:23:34;101961.34;;;0.24;89.66
46347;BME280;32057;47.830;19.046;2023-02-11T09:26:12;101956.88;;;0.32;88.80
46347;BME280;32057;47.830;19.046;2023-02-11T09:28:38;101955.91;;;0.40;89.20
46347;BME280;32057;47.830;19.046;2023-02-11T09:31:09;101951.56;;;0.49;90.41
46347;BME280;32057;47.830;19.046;2023-02-11T09:33:36;101948.28;;;0.61;88.99
46347;BME280;32057;47.830;19.046;2023-02-11T09:36:03;101947.53;;;0.72;88.92
46347;BME280;32057;47.830;19.046;2023-02-11T09:38:30;101944.50;;;0.76;87.01
46347;BME280;32057;47.830;19.046;2023-02-11T09:40:55;101950.50;;;0.76;86.75
46347;BME280;32057;47.830;19.046;2023-02-11T09:43:24;101944.34;;;0.74;86.46
46347;BME280;32057;47.830;19.046;2023-02-11T09:45:53;101940.63;;;0.71;85.41
46347;BME280;32057;47.830;19.046;2023-02-11T09:48:20;101942.41;;;0.72;85.05
46347;BME280;32057;47.830;19.046;2023-02-11T09:50:53;101940.63;;;0.71;84.82
46347;BME280;32057;47.830;19.046;2023-02-11T09:53:42;101935.75;;;0.74;85.27
46347;BME280;32057;47.830;19.046;2023-02-11T09:56:13;101926.28;;;0.83;85.88
46347;BME280;32057;47.830;19.046;2023-02-11T09:58:41;101926.44;;;0.95;87.36
46347;BME280;32057;47.830;19.046;2023-02-11T10:06:54;101920.16;;;1.32;82.00
46347;BME280;32057;47.830;19.046;2023-02-11T10:23:42;101860.84;;;2.25;78.19
46347;BME280;32057;47.830;19.046;2023-02-11T10:26:12;101859.50;;;2.40;77.99
46347;BME280;32057;47.830;19.046;2023-02-11T10:28:41;101857.41;;;2.46;77.11
46347;BME280;32057;47.830;19.046;2023-02-11T10:31:10;101861.19;;;2.51;76.88
46347;BME280;32057;47.830;19.046;2023-02-11T10:33:50;101856.53;;;2.57;75.12
46347;BME280;32057;47.830;19.046;2023-02-11T10:36:20;101858.47;;;2.60;76.46
46347;BME280;32057;47.830;19.046;2023-02-11T10:38:48;101849.00;;;2.71;74.04
46347;BME280;32057;47.830;19.046;2023-02-11T10:41:20;101848.44;;;2.75;73.12
46347;BME280;32057;47.830;19.046;2023-02-11T10:43:49;101859.16;;;2.69;73.51
46347;BME280;32057;47.830;19.046;2023-02-11T10:46:18;101842.06;;;2.70;74.81
46347;BME280;32057;47.830;19.046;2023-02-11T10:48:46;101832.81;;;2.72;73.42
46347;BME280;32057;47.830;19.046;2023-02-11T10:51:24;101828.88;;;2.77;72.93
46347;BME280;32057;47.830;19.046;2023-02-11T10:56:29;101812.38;;;2.85;72.14
46347;BME280;32057;47.830;19.046;2023-02-11T10:59:06;101809.06;;;2.98;72.95
46347;BME280;32057;47.830;19.046;2023-02-11T11:01:45;101806.16;;;3.17;73.42
46347;BME280;32057;47.830;19.046;2023-02-11T11:06:54;101806.72;;;3.36;71.36
46347;BME280;32057;47.830;19.046;2023-02-11T11:09:34;101800.69;;;3.36;70.40
46347;BME280;32057;47.830;19.046;2023-02-11T11:12:25;101792.63;;;3.43;71.11
46347;BME280;32057;47.830;19.046;2023-02-11T11:17:33;101780.63;;;3.55;70.92
46347;BME280;32057;47.830;19.046;2023-02-11T11:22:38;101779.56;;;3.40;70.91
46347;BME280;32057;47.830;19.046;2023-02-11T11:25:04;101784.91;;;3.31;70.33
46347;BME280;32057;47.830;19.046;2023-02-11T11:27:30;101781.31;;;3.29;69.81
46347;BME280;32057;47.830;19.046;2023-02-11T11:29:56;101782.13;;;3.28;70.45
46347;BME280;32057;47.830;19.046;2023-02-11T11:32:28;101778.19;;;3.33;71.74
46347;BME280;32057;47.830;19.046;2023-02-11T11:35:02;101779.13;;;3.34;71.57
46347;BME280;32057;47.830;19.046;2023-02-11T11:37:34;101770.59;;;3.35;70.01
46347;BME280;32057;47.830;19.046;2023-02-11T11:42:38;101766.44;;;3.37;71.02
46347;BME280;32057;47.830;19.046;2023-02-11T11:47:55;101768.81;;;3.46;71.17
46347;BME280;32057;47.830;19.046;2023-02-11T11:55:44;101753.53;;;3.72;68.92
46347;BME280;32057;47.830;19.046;2023-02-11T11:58:17;101746.06;;;3.75;68.85
46347;BME280;32057;47.830;19.046;2023-02-11T12:00:51;101736.22;;;3.95;69.34
46347;BME280;32057;47.830;19.046;2023-02-11T12:03:36;101722.34;;;3.93;68.09
46347;BME280;32057;47.830;19.046;2023-02-11T12:06:42;101719.84;;;4.06;68.93
46347;BME280;32057;47.830;19.046;2023-02-11T12:14:44;101709.16;;;3.88;68.00
46347;BME280;32057;47.830;19.046;2023-02-11T12:28:10;101685.03;;;4.25;68.52
46347;BME280;32057;47.830;19.046;2023-02-11T12:50:29;101636.91;;;4.90;65.89
46347;BME280;32057;47.830;19.046;2023-02-11T12:55:39;101621.81;;;5.10;63.82
46347;BME280;32057;47.830;19.046;2023-02-11T12:58:13;101620.84;;;5.08;62.13
46347;BME280;32057;47.830;19.046;2023-02-11T13:00:48;101633.91;;;5.11;62.00
46347;BME280;32057;47.830;19.046;2023-02-11T13:03:24;101627.78;;;5.09;61.61
46347;BME280;32057;47.830;19.046;2023-02-11T13:05:59;101625.28;;;5.10;61.18
46347;BME280;32057;47.830;19.046;2023-02-11T13:08:52;101612.97;;;5.19;60.75
46347;BME280;32057;47.830;19.046;2023-02-11T13:11:32;101593.59;;;5.26;59.42
46347;BME280;32057;47.830;19.046;2023-02-11T13:14:02;101596.41;;;5.16;59.59
46347;BME280;32057;47.830;19.046;2023-02-11T13:16:41;101595.19;;;5.24;59.82
46347;BME280;32057;47.830;19.046;2023-02-11T13:21:52;101593.59;;;5.26;58.62
46347;BME280;32057;47.830;19.046;2023-02-11T13:29:37;101598.97;;;5.29;60.06
46347;BME280;32057;47.830;19.046;2023-02-11T13:32:11;101597.53;;;5.34;59.57
46347;BME280;32057;47.830;19.046;2023-02-11T13:40:36;101602.91;;;5.37;59.54
46347;BME280;32057;47.830;19.046;2023-02-11T13:42:57;101597.31;;;5.45;58.57
46347;BME280;32057;47.830;19.046;2023-02-11T13:45:46;101588.47;;;5.41;58.37
46347;BME280;32057;47.830;19.046;2023-02-11T13:48:35;101594.56;;;5.42;58.81
46347;BME280;32057;47.830;19.046;2023-02-11T13:53:44;101581.16;;;5.34;57.73
46347;BME280;32057;47.830;19.046;2023-02-11T13:56:23;101573.16;;;5.29;57.18
46347;BME280;32057;47.830;19.046;2023-02-11T13:58:52;101581.88;;;5.31;56.72
46347;BME280;32057;47.830;19.046;2023-02-11T14:04:30;101601.75;;;5.19;57.78
46347;BME280;32057;47.830;19.046;2023-02-11T14:16:12;101606.09;;;5.33;56.98
46347;BME280;32057;47.830;19.046;2023-02-11T14:23:52;101623.94;;;5.44;56.05
46347;BME280;32057;47.830;19.046;2023-02-11T14:28:51;101616.81;;;5.39;56.79
46347;BME280;32057;47.830;19.046;2023-02-11T14:31:26;101604.69;;;5.38;57.14
46347;BME280;32057;47.830;19.046;2023-02-11T14:34:03;101607.25;;;5.38;57.14
46347;BME280;32057;47.830;19.046;2023-02-11T14:39:31;101601.81;;;5.34;58.15
46347;BME280;32057;47.830;19.046;2023-02-11T14:42:04;101599.34;;;5.35;58.15
46347;BME280;32057;47.830;19.046;2023-02-11T14:44:31;101588.31;;;5.38;57.97
46347;BME280;32057;47.830;19.046;2023-02-11T14:46:58;101580.66;;;5.39;57.51
46347;BME280;32057;47.830;19.046;2023-02-11T14:49:25;101566.78;;;5.37;57.56
46347;BME280;32057;47.830;19.046;2023-02-11T14:51:59;101565.69;;;5.34;58.04
46347;BME280;32057;47.830;19.046;2023-02-11T14:54:28;101557.84;;;5.32;57.63
46347;BME280;32057;47.830;19.046;2023-02-11T14:57:10;101568.16;;;5.32;58.09
46347;BME280;32057;47.830;19.046;2023-02-11T14:59:37;101569.75;;;5.30;58.52
46347;BME280;32057;47.830;19.046;2023-02-11T15:02:02;101570.38;;;5.26;58.13
46347;BME280;32057;47.830;19.046;2023-02-11T15:04:43;101570.78;;;5.19;57.94
46347;BME280;32057;47.830;19.046;2023-02-11T15:07:10;101576.66;;;5.16;58.13
46347;BME280;32057;47.830;19.046;2023-02-11T15:09:47;101577.16;;;5.11;58.76
46347;BME280;32057;47.830;19.046;2023-02-11T15:12:23;101579.56;;;5.08;58.37
46347;BME280;32057;47.830;19.046;2023-02-11T15:14:51;101580.84;;;5.01;59.33
46347;BME280;32057;47.830;19.046;2023-02-11T15:17:27;101577.28;;;4.99;59.58
46347;BME280;32057;47.830;19.046;2023-02-11T15:19:56;101572.31;;;5.02;59.86
46347;BME280;32057;47.830;19.046;2023-02-11T15:22:31;101571.13;;;4.97;60.09
46347;BME280;32057;47.830;19.046;2023-02-11T15:25:01;101562.13;;;4.90;59.50
46347;BME280;32057;47.830;19.046;2023-02-11T15:27:37;101552.50;;;4.88;59.88
46347;BME280;32057;47.830;19.046;2023-02-11T15:32:42;101556.31;;;4.79;60.73
46347;BME280;32057;47.830;19.046;2023-02-11T15:35:10;101559.38;;;4.74;61.12